sensor_id;sensor_type;location;lat;lon;timestamp;pressure;altitude;pressure_sealevel;temperature;humidity
7586;BME280;12459;42.646;23.292;2023-04-15T00:13:01;92856.47;;;8.67;84.46
7586;BME280;12459;42.646;23.292;2023-04-15T00:28:04;92803.72;;;8.51;85.75
7586;BME280;12459;42.646;23.292;2023-04-15T00:43:06;92764.13;;;7.99;88.12
7586;BME280;12459;42.646;23.292;2023-04-15T00:58:08;92767.47;;;8.26;87.42
7586;BME280;12459;42.646;23.292;2023-04-15T01:13:10;92780.84;;;8.50;83.04
7586;BME280;12459;42.646;23.292;2023-04-15T01:28:12;92957.78;;;9.83;85.25
7586;BME280;12459;42.646;23.292;2023-04-15T01:43:14;92816.31;;;8.23;87.29
7586;BME280;12459;42.646;23.292;2023-04-15T01:58:15;92893.16;;;8.39;90.21
7586;BME280;12459;42.646;23.292;2023-04-15T02:13:17;92925.00;;;8.96;86.95
7586;BME280;12459;42.646;23.292;2023-04-15T02:28:20;92521.91;;;6.03;87.46
7586;BME280;12459;42.646;23.292;2023-04-15T02:43:22;92974.44;;;9.08;88.99
7586;BME280;12459;42.646;23.292;2023-04-15T02:58:24;92757.78;;;6.82;92.11
7586;BME280;12459;42.646;23.292;2023-04-15T03:13:26;92707.28;;;6.03;94.26
7586;BME280;12459;42.646;23.292;2023-04-15T03:28:28;93001.59;;;8.26;96.81
7586;BME280;12459;42.646;23.292;2023-04-15T03:43:30;92803.69;;;6.55;100.00
7586;BME280;12459;42.646;23.292;2023-04-15T03:58:32;93072.06;;;7.98;99.69
7586;BME280;12459;42.646;23.292;2023-04-15T04:13:33;92885.34;;;6.65;100.00
7586;BME280;12459;42.646;23.292;2023-04-15T04:28:35;92846.16;;;7.03;100.00
7586;BME280;12459;42.646;23.292;2023-04-15T04:43:37;92913.09;;;7.74;100.00
7586;BME280;12459;42.646;23.292;2023-04-15T04:58:39;93063.72;;;9.81;95.78
7586;BME280;12459;42.646;23.292;2023-04-15T05:13:40;92943.25;;;9.65;88.42
7586;BME280;12459;42.646;23.292;2023-04-15T05:28:42;92966.56;;;10.40;81.41
7586;BME280;12459;42.646;23.292;2023-04-15T05:43:44;92791.94;;;9.27;79.19
7586;BME280;12459;42.646;23.292;2023-04-15T05:58:45;92752.94;;;9.30;76.88
7586;BME280;12459;42.646;23.292;2023-04-15T06:13:47;92909.09;;;10.61;76.41
7586;BME280;12459;42.646;23.292;2023-04-15T06:28:49;93132.56;;;12.29;77.31
7586;BME280;12459;42.646;23.292;2023-04-15T06:43:50;93135.63;;;12.44;74.97
7586;BME280;12459;42.646;23.292;2023-04-15T06:58:52;92699.75;;;9.68;73.35
7586;BME280;12459;42.646;23.292;2023-04-15T07:13:54;92960.50;;;12.07;71.64
7586;BME280;12459;42.646;23.292;2023-04-15T07:28:55;93061.00;;;13.02;69.62
7586;BME280;12459;42.646;23.292;2023-04-15T07:43:57;93155.31;;;13.50;68.52
7586;BME280;12459;42.646;23.292;2023-04-15T07:58:59;93064.78;;;13.05;66.81
7586;BME280;12459;42.646;23.292;2023-04-15T08:14:03;92979.78;;;12.95;65.28
7586;BME280;12459;42.646;23.292;2023-04-15T08:29:04;93067.09;;;13.66;59.98
7586;BME280;12459;42.646;23.292;2023-04-15T08:44:06;92975.31;;;13.95;60.05
7586;BME280;12459;42.646;23.292;2023-04-15T08:59:08;93088.81;;;14.85;53.57
7586;BME280;12459;42.646;23.292;2023-04-15T09:14:10;93005.84;;;14.58;47.53
7586;BME280;12459;42.646;23.292;2023-04-15T09:29:12;93023.88;;;14.70;46.06
7586;BME280;12459;42.646;23.292;2023-04-15T09:44:24;93111.41;;;15.80;45.37
7586;BME280;12459;42.646;23.292;2023-04-15T09:59:26;93105.75;;;16.06;45.10
7586;BME280;12459;42.646;23.292;2023-04-15T10:14:32;92951.66;;;15.51;44.20
7586;BME280;12459;42.646;23.292;2023-04-15T10:29:34;92955.47;;;15.81;42.94
7586;BME280;12459;42.646;23.292;2023-04-15T10:44:37;93100.38;;;17.30;41.48
7586;BME280;12459;42.646;23.292;2023-04-15T11:14:59;92590.03;;;14.96;39.26
7586;BME280;12459;42.646;23.292;2023-04-15T11:30:01;93010.44;;;17.98;39.12
7586;BME280;12459;42.646;23.292;2023-04-15T11:45:11;93056.81;;;18.00;36.23
7586;BME280;12459;42.646;23.292;2023-04-15T12:00:13;92885.72;;;16.73;36.47
7586;BME280;12459;42.646;23.292;2023-04-15T12:15:14;92973.63;;;17.58;39.82
7586;BME280;12459;42.646;23.292;2023-04-15T12:30:16;92758.38;;;15.86;38.24
7586;BME280;12459;42.646;23.292;2023-04-15T12:45:18;92893.72;;;16.91;39.96
7586;BME280;12459;42.646;23.292;2023-04-15T13:00:20;92971.34;;;17.18;37.59
7586;BME280;12459;42.646;23.292;2023-04-15T13:15:22;93054.06;;;17.52;37.81
7586;BME280;12459;42.646;23.292;2023-04-15T13:30:24;92721.59;;;15.19;39.00
7586;BME280;12459;42.646;23.292;2023-04-15T13:45:26;92877.59;;;16.64;36.64
7586;BME280;12459;42.646;23.292;2023-04-15T14:00:28;92943.25;;;16.64;38.55
7586;BME280;12459;42.646;23.292;2023-04-15T14:15:29;92910.63;;;16.77;39.10
7586;BME280;12459;42.646;23.292;2023-04-15T14:30:31;92664.38;;;14.97;39.19
7586;BME280;12459;42.646;23.292;2023-04-15T14:45:33;92858.22;;;16.56;38.48
7586;BME280;12459;42.646;23.292;2023-04-15T15:00:37;92768.22;;;15.38;37.80
7586;BME280;12459;42.646;23.292;2023-04-15T15:15:41;93065.75;;;17.58;39.00
7586;BME280;12459;42.646;23.292;2023-04-15T15:30:42;93009.84;;;17.46;38.54
7586;BME280;12459;42.646;23.292;2023-04-15T15:45:44;92916.75;;;16.44;39.65
7586;BME280;12459;42.646;23.292;2023-04-15T16:00:46;92852.38;;;15.73;39.85
7586;BME280;12459;42.646;23.292;2023-04-15T16:15:48;92862.88;;;15.62;39.52
7586;BME280;12459;42.646;23.292;2023-04-15T16:30:53;92950.59;;;16.21;39.62
7586;BME280;12459;42.646;23.292;2023-04-15T16:45:55;92987.53;;;16.24;40.37
7586;BME280;12459;42.646;23.292;2023-04-15T17:00:57;92849.78;;;14.87;41.14
7586;BME280;12459;42.646;23.292;2023-04-15T17:15:59;92828.03;;;14.63;41.57
7586;BME280;12459;42.646;23.292;2023-04-15T17:31:03;92990.59;;;15.13;43.23
7586;BME280;12459;42.646;23.292;2023-04-15T17:46:05;93099.56;;;15.47;43.99
7586;BME280;12459;42.646;23.292;2023-04-15T18:01:07;92868.19;;;13.12;47.91
7586;BME280;12459;42.646;23.292;2023-04-15T18:16:09;93093.53;;;14.50;46.94
7586;BME280;12459;42.646;23.292;2023-04-15T18:31:11;92963.06;;;13.25;48.02
7586;BME280;12459;42.646;23.292;2023-04-15T18:46:12;93070.13;;;13.68;47.97
7586;BME280;12459;42.646;23.292;2023-04-15T19:01:15;92969.38;;;12.59;48.30
7586;BME280;12459;42.646;23.292;2023-04-15T19:16:16;92821.22;;;11.55;49.75
7586;BME280;12459;42.646;23.292;2023-04-15T19:31:19;92989.66;;;12.47;52.65
7586;BME280;12459;42.646;23.292;2023-04-15T19:46:21;92963.63;;;12.19;53.19
7586;BME280;12459;42.646;23.292;2023-04-15T20:01:22;92945.03;;;12.11;52.97
7586;BME280;12459;42.646;23.292;2023-04-15T20:16:26;93020.97;;;12.54;53.16
7586;BME280;12459;42.646;23.292;2023-04-15T20:31:27;93159.66;;;12.93;55.29
7586;BME280;12459;42.646;23.292;2023-04-15T20:46:29;92812.81;;;10.99;55.47
7586;BME280;12459;42.646;23.292;2023-04-15T21:01:31;92970.16;;;11.76;56.91
7586;BME280;12459;42.646;23.292;2023-04-15T21:16:33;93118.50;;;12.54;59.63
7586;BME280;12459;42.646;23.292;2023-04-15T21:31:35;93120.53;;;12.50;57.66
7586;BME280;12459;42.646;23.292;2023-04-15T21:46:36;93064.06;;;12.08;56.54
7586;BME280;12459;42.646;23.292;2023-04-15T22:01:39;93168.81;;;13.08;54.37
7586;BME280;12459;42.646;23.292;2023-04-15T22:16:41;93059.47;;;12.22;56.78
7586;BME280;12459;42.646;23.292;2023-04-15T22:31:43;93026.69;;;12.14;58.54
7586;BME280;12459;42.646;23.292;2023-04-15T22:46:46;93187.72;;;13.33;59.80
7586;BME280;12459;42.646;23.292;2023-04-15T23:01:50;93144.03;;;12.75;60.37
7586;BME280;12459;42.646;23.292;2023-04-15T23:16:52;92736.09;;;9.49;59.85
7586;BME280;12459;42.646;23.292;2023-04-15T23:31:54;93050.88;;;11.69;62.17
7586;BME280;12459;42.646;23.292;2023-04-15T23:46:55;93202.81;;;12.60;61.23
